createdAt,value
2022-12-09T00:01:22.782Z,5.30
2022-12-09T00:03:51.237Z,5.60
2022-12-09T00:06:27.597Z,5.70
2022-12-09T00:08:58.612Z,5.10
2022-12-09T00:11:26.915Z,5.60
2022-12-09T00:13:59.200Z,5.00
2022-12-09T00:16:27.429Z,5.20
2022-12-09T00:18:58.615Z,5.50
2022-12-09T00:21:32.333Z,5.60
2022-12-09T00:24:06.397Z,5.70
2022-12-09T00:26:35.387Z,5.80
2022-12-09T00:29:04.740Z,5.80
2022-12-09T00:31:37.600Z,5.70
2022-12-09T00:34:11.426Z,5.30
2022-12-09T00:36:40.537Z,5.60
2022-12-09T00:39:10.130Z,5.50
2022-12-09T00:41:38.898Z,5.90
2022-12-09T00:44:08.469Z,5.50
2022-12-09T00:46:36.682Z,5.30
2022-12-09T00:49:05.582Z,6.00
2022-12-09T00:51:33.704Z,5.10
2022-12-09T00:54:03.402Z,5.90
2022-12-09T00:56:32.164Z,5.40
2022-12-09T00:59:01.304Z,5.40
2022-12-09T01:01:30.600Z,5.50
2022-12-09T01:03:59.202Z,5.30
2022-12-09T01:06:28.106Z,5.30
2022-12-09T01:08:56.550Z,5.30
2022-12-09T01:11:28.515Z,5.50
2022-12-09T01:14:01.473Z,5.30
2022-12-09T01:16:33.837Z,5.30
2022-12-09T01:19:07.400Z,5.60
2022-12-09T01:21:36.753Z,6.10
2022-12-09T01:24:10.905Z,5.90
2022-12-09T01:26:39.904Z,6.40
2022-12-09T01:29:08.068Z,5.90
2022-12-09T01:31:36.772Z,6.20
2022-12-09T01:34:05.702Z,6.10
2022-12-09T01:36:33.788Z,5.70
2022-12-09T01:39:01.886Z,6.10
2022-12-09T01:41:30.227Z,5.80
2022-12-09T01:44:28.519Z,6.50
2022-12-09T01:47:00.230Z,5.80
2022-12-09T01:49:48.304Z,6.20
2022-12-09T01:52:23.190Z,5.80
2022-12-09T01:54:53.480Z,6.00
2022-12-09T01:57:21.725Z,5.30
2022-12-09T01:59:50.104Z,6.00
2022-12-09T02:02:21.438Z,6.10
2022-12-09T02:04:50.928Z,5.70
2022-12-09T02:07:19.842Z,5.40
2022-12-09T02:09:53.530Z,5.80
2022-12-09T02:13:12.466Z,6.00
2022-12-09T02:15:59.211Z,5.90
2022-12-09T02:18:53.510Z,5.90
2022-12-09T02:21:49.616Z,5.60
2022-12-09T02:24:46.146Z,5.60
2022-12-09T02:27:43.493Z,5.60
2022-12-09T02:30:21.239Z,6.40
2022-12-09T02:33:17.415Z,5.70
2022-12-09T02:35:55.874Z,5.90
2022-12-09T02:38:30.390Z,5.70
2022-12-09T02:41:18.941Z,5.60
2022-12-09T02:43:56.809Z,5.80
2022-12-09T02:46:29.641Z,6.00
2022-12-09T02:48:59.844Z,5.50
2022-12-09T02:51:34.007Z,5.60
2022-12-09T02:54:11.454Z,5.70
2022-12-09T02:56:47.316Z,5.60
2022-12-09T02:59:15.822Z,5.50
2022-12-09T03:02:14.485Z,5.40
2022-12-09T03:04:55.017Z,6.00
2022-12-09T03:07:58.433Z,6.20
2022-12-09T03:11:02.120Z,5.40
2022-12-09T03:14:00.155Z,6.10
2022-12-09T03:17:13.153Z,6.00
2022-12-09T03:19:50.564Z,5.60
2022-12-09T03:22:25.488Z,5.70
2022-12-09T03:25:28.501Z,5.90
2022-12-09T03:28:49.491Z,5.80
2022-12-09T03:31:23.996Z,5.70
2022-12-09T03:33:58.892Z,6.20
2022-12-09T03:36:35.478Z,5.80
2022-12-09T03:39:13.010Z,6.10
2022-12-09T03:41:56.304Z,6.00
2022-12-09T03:44:38.177Z,6.10
2022-12-09T03:47:08.544Z,6.10
2022-12-09T03:49:39.778Z,5.60
2022-12-09T03:52:16.841Z,6.00
2022-12-09T03:54:48.531Z,6.70
2022-12-09T03:57:20.582Z,5.90
2022-12-09T04:00:02.870Z,5.90
2022-12-09T04:02:40.913Z,6.60
2022-12-09T04:05:10.763Z,6.20
2022-12-09T04:07:39.458Z,6.40
2022-12-09T04:10:08.444Z,6.40
2022-12-09T04:12:36.849Z,6.70
2022-12-09T04:15:06.618Z,6.20
2022-12-09T04:17:34.586Z,6.20
2022-12-09T04:20:03.615Z,6.60
2022-12-09T04:22:32.078Z,6.20
2022-12-09T04:25:00.106Z,6.00
2022-12-09T04:27:28.217Z,6.50
2022-12-09T04:29:56.880Z,6.60
2022-12-09T04:32:25.220Z,6.90
2022-12-09T04:34:53.721Z,6.70
2022-12-09T04:37:21.952Z,6.80
2022-12-09T04:39:50.427Z,6.30
2022-12-09T04:42:18.524Z,6.50
2022-12-09T04:44:46.621Z,6.50
2022-12-09T04:47:14.855Z,6.80
2022-12-09T04:49:42.888Z,6.80
2022-12-09T04:52:11.307Z,6.60
2022-12-09T04:54:39.394Z,6.30
2022-12-09T04:57:08.519Z,6.80
2022-12-09T04:59:36.459Z,6.60
2022-12-09T05:02:04.497Z,6.40
2022-12-09T05:04:33.555Z,6.40
2022-12-09T05:07:02.382Z,6.50
2022-12-09T05:09:31.072Z,6.00
2022-12-09T05:11:59.906Z,6.30
2022-12-09T05:14:28.161Z,6.30
2022-12-09T05:16:56.459Z,6.50
2022-12-09T05:19:25.822Z,5.60
2022-12-09T05:21:54.090Z,6.50
2022-12-09T05:24:22.431Z,6.30
2022-12-09T05:26:50.774Z,6.90
2022-12-09T05:29:23.062Z,6.80
2022-12-09T05:31:52.749Z,6.70
2022-12-09T05:34:21.228Z,6.30
2022-12-09T05:36:49.733Z,6.30
2022-12-09T05:39:18.232Z,6.40
2022-12-09T05:41:47.426Z,6.20
2022-12-09T05:44:16.473Z,6.90
2022-12-09T05:46:44.810Z,7.70
2022-12-09T05:49:13.572Z,7.30
2022-12-09T05:51:42.023Z,7.10
2022-12-09T05:54:11.100Z,7.60
2022-12-09T05:56:44.444Z,7.40
2022-12-09T05:59:15.872Z,7.90
2022-12-09T06:01:44.576Z,7.50
2022-12-09T06:04:12.958Z,7.60
2022-12-09T06:06:41.582Z,6.70
2022-12-09T06:09:12.350Z,6.50
2022-12-09T06:11:41.815Z,7.60
2022-12-09T06:14:12.080Z,7.10
2022-12-09T06:16:40.656Z,6.90
2022-12-09T06:19:12.832Z,8.00
2022-12-09T06:21:42.455Z,7.80
2022-12-09T06:24:10.537Z,8.00
2022-12-09T06:26:38.928Z,7.60
2022-12-09T06:29:07.079Z,8.30
2022-12-09T06:31:35.674Z,8.60
2022-12-09T06:34:04.524Z,8.30
2022-12-09T06:36:32.741Z,8.20
2022-12-09T06:39:10.200Z,8.10
2022-12-09T06:41:43.792Z,8.00
2022-12-09T06:44:18.393Z,8.00
2022-12-09T06:46:50.378Z,8.30
2022-12-09T06:49:19.144Z,7.80
2022-12-09T06:51:47.731Z,7.80
2022-12-09T06:54:16.801Z,7.90
2022-12-09T06:56:44.804Z,8.40
2022-12-09T06:59:13.144Z,8.80
2022-12-09T07:01:41.865Z,8.80
2022-12-09T07:04:14.745Z,8.50
2022-12-09T07:06:46.322Z,8.20
2022-12-09T07:09:22.828Z,9.00
2022-12-09T07:14:06.791Z,7.90
2022-12-09T07:16:36.345Z,7.30
2022-12-09T07:19:06.199Z,7.90
2022-12-09T07:21:35.212Z,7.80
2022-12-09T07:24:03.904Z,7.80
2022-12-09T07:26:33.672Z,7.40
2022-12-09T07:29:04.530Z,7.40
2022-12-09T07:31:34.395Z,7.90
2022-12-09T07:34:04.861Z,7.50
2022-12-09T07:36:36.673Z,8.20
2022-12-09T07:39:14.628Z,8.20
2022-12-09T07:41:42.867Z,7.90
2022-12-09T07:44:12.058Z,7.50
2022-12-09T07:46:40.936Z,8.10
2022-12-09T07:49:11.900Z,7.50
2022-12-09T07:51:41.478Z,8.00
2022-12-09T07:54:18.260Z,6.90
2022-12-09T07:56:46.962Z,8.30
2022-12-09T07:59:17.680Z,7.20
2022-12-09T08:01:46.084Z,6.90
2022-12-09T08:04:14.670Z,6.90
2022-12-09T08:06:43.505Z,7.50
2022-12-09T08:09:13.886Z,7.40
2022-12-09T08:11:42.897Z,6.90
2022-12-09T08:14:13.031Z,7.30
2022-12-09T08:16:43.571Z,7.80
2022-12-09T08:19:13.500Z,7.80
2022-12-09T08:21:42.713Z,6.90
2022-12-09T08:24:12.861Z,7.40
2022-12-09T08:26:41.595Z,7.30
2022-12-09T08:29:13.462Z,7.60
2022-12-09T08:31:44.383Z,7.20
2022-12-09T08:34:15.308Z,7.30
2022-12-09T08:36:44.351Z,7.60
2022-12-09T08:39:14.336Z,7.30
2022-12-09T08:41:43.908Z,7.50
2022-12-09T08:44:19.576Z,6.60
2022-12-09T08:46:51.926Z,7.20
2022-12-09T08:49:23.284Z,6.70
2022-12-09T08:51:53.893Z,6.40
2022-12-09T08:54:23.272Z,7.30
2022-12-09T08:56:55.621Z,6.90
2022-12-09T08:59:25.281Z,7.50
2022-12-09T09:01:54.492Z,7.10
2022-12-09T09:04:23.244Z,6.70
2022-12-09T09:06:53.495Z,7.20
2022-12-09T09:09:23.338Z,7.20
2022-12-09T09:11:51.888Z,7.10
2022-12-09T09:14:20.912Z,6.80
2022-12-09T09:16:49.303Z,7.60
2022-12-09T09:19:23.476Z,7.70
2022-12-09T09:21:53.307Z,7.90
2022-12-09T09:24:24.661Z,7.70
2022-12-09T09:26:54.202Z,7.60
2022-12-09T09:29:24.779Z,6.80
2022-12-09T09:31:57.489Z,7.70
2022-12-09T09:34:28.301Z,7.50
2022-12-09T09:36:57.029Z,6.80
2022-12-09T09:39:26.077Z,6.90
2022-12-09T09:42:08.743Z,7.70
2022-12-09T09:44:41.396Z,6.90
2022-12-09T09:47:20.011Z,7.20
2022-12-09T09:50:10.559Z,7.30
2022-12-09T09:52:42.781Z,8.00
2022-12-09T09:55:17.540Z,7.50
2022-12-09T10:00:52.509Z,7.40
2022-12-09T10:03:43.105Z,7.50
2022-12-09T10:06:44.487Z,8.10
2022-12-09T10:09:41.988Z,8.30
2022-12-09T10:12:38.163Z,7.10
2022-12-09T10:15:28.594Z,7.60
2022-12-09T10:18:24.259Z,7.10
2022-12-09T10:20:53.891Z,7.70
2022-12-09T10:23:26.255Z,7.90
2022-12-09T10:26:01.262Z,8.20
2022-12-09T10:28:40.530Z,7.80
2022-12-09T10:31:12.159Z,7.90
2022-12-09T10:33:41.974Z,8.00
2022-12-09T10:36:32.349Z,7.60
2022-12-09T10:39:06.011Z,7.40
2022-12-09T10:42:06.247Z,6.90
2022-12-09T10:44:34.821Z,7.20
2022-12-09T10:47:08.031Z,7.30
2022-12-09T10:49:36.993Z,7.60
2022-12-09T10:52:06.348Z,7.90
2022-12-09T10:54:44.930Z,7.50
2022-12-09T10:57:12.935Z,7.80
2022-12-09T11:00:08.955Z,7.70
2022-12-09T11:02:55.002Z,7.30
2022-12-09T11:05:28.663Z,7.90
2022-12-09T11:07:59.664Z,7.50
2022-12-09T11:10:30.814Z,8.40
2022-12-09T11:13:15.260Z,8.50
2022-12-09T11:15:50.432Z,8.30
2022-12-09T11:18:37.391Z,9.40
2022-12-09T11:21:27.454Z,8.20
2022-12-09T11:24:02.657Z,8.00
2022-12-09T11:26:39.313Z,8.20
2022-12-09T11:29:22.190Z,8.20
2022-12-09T11:31:50.828Z,7.70
2022-12-09T11:34:27.404Z,7.60
2022-12-09T11:36:59.127Z,7.20
2022-12-09T11:39:33.494Z,7.80
2022-12-09T11:42:17.561Z,7.90
2022-12-09T11:44:57.248Z,7.00
2022-12-09T11:48:25.653Z,7.30
2022-12-09T11:50:34.277Z,7.30
2022-12-09T11:53:13.852Z,8.10
2022-12-09T11:56:16.672Z,7.60
2022-12-09T11:58:53.720Z,7.10
2022-12-09T12:01:46.709Z,7.60
2022-12-09T12:04:22.962Z,7.00
2022-12-09T12:07:04.016Z,7.40
2022-12-09T12:09:52.872Z,7.70
2022-12-09T12:12:49.311Z,8.10
2022-12-09T12:15:58.530Z,7.80
2022-12-09T12:18:36.124Z,7.70
2022-12-09T12:21:44.931Z,8.20
2022-12-09T12:24:38.565Z,7.80
2022-12-09T12:27:29.836Z,7.10
2022-12-09T12:30:13.390Z,7.40
2022-12-09T12:36:24.007Z,8.40
2022-12-09T12:39:23.284Z,7.40
2022-12-09T12:42:08.831Z,8.30
2022-12-09T12:45:41.174Z,8.00
2022-12-09T12:48:29.425Z,7.70
2022-12-09T12:51:47.375Z,7.70
2022-12-09T12:54:50.526Z,8.30
2022-12-09T12:57:43.376Z,7.80
2022-12-09T13:00:32.228Z,7.90
2022-12-09T13:03:21.854Z,7.80
2022-12-09T13:05:55.743Z,8.10
2022-12-09T13:08:38.991Z,8.70
2022-12-09T13:11:16.668Z,7.70
2022-12-09T13:14:25.167Z,7.90
2022-12-09T13:16:54.113Z,7.90
2022-12-09T13:19:33.699Z,7.70
2022-12-09T13:22:04.119Z,7.80
2022-12-09T13:24:53.064Z,7.40
2022-12-09T13:27:38.568Z,8.00
2022-12-09T13:30:21.080Z,7.50
2022-12-09T13:33:20.898Z,7.50
2022-12-09T13:36:22.955Z,7.40
2022-12-09T13:38:50.827Z,8.00
2022-12-09T13:41:51.663Z,7.00
2022-12-09T13:44:19.811Z,7.50
2022-12-09T13:46:48.537Z,7.60
2022-12-09T13:49:24.795Z,7.40
2022-12-09T13:51:56.412Z,7.10
2022-12-09T13:54:29.393Z,7.20
2022-12-09T13:57:36.224Z,7.30
2022-12-09T14:00:07.633Z,7.20
2022-12-09T14:03:00.413Z,7.00
2022-12-09T14:05:36.479Z,7.70
2022-12-09T14:08:25.308Z,7.90
2022-12-09T14:10:54.247Z,8.20
2022-12-09T14:13:33.085Z,8.20
2022-12-09T14:16:36.889Z,7.70
2022-12-09T14:19:26.642Z,7.30
2022-12-09T14:22:20.269Z,7.40
2022-12-09T14:24:52.962Z,7.20
2022-12-09T14:27:23.463Z,7.40
2022-12-09T14:30:04.086Z,7.50
2022-12-09T14:32:54.774Z,7.50
2022-12-09T14:35:57.697Z,8.00
2022-12-09T14:39:15.726Z,7.10
2022-12-09T14:41:56.400Z,7.50
2022-12-09T14:44:56.921Z,7.40
2022-12-09T14:47:31.048Z,8.00
2022-12-09T14:50:29.555Z,7.60
2022-12-09T14:53:02.908Z,7.60
2022-12-09T14:55:37.346Z,8.10
2022-12-09T14:58:06.143Z,7.50
2022-12-09T15:00:40.944Z,7.80
2022-12-09T15:03:33.873Z,8.80
2022-12-09T15:06:27.180Z,8.20
2022-12-09T15:08:59.876Z,7.30
2022-12-09T15:11:35.321Z,7.00
2022-12-09T15:14:27.643Z,7.10
2022-12-09T15:16:57.609Z,7.70
2022-12-09T15:22:30.773Z,8.10
2022-12-09T15:24:59.989Z,9.20
2022-12-09T15:27:28.246Z,9.30
2022-12-09T15:29:56.731Z,8.70
2022-12-09T15:32:30.432Z,10.00
2022-12-09T15:35:18.415Z,10.20
2022-12-09T15:37:49.819Z,10.80
2022-12-09T15:40:22.470Z,10.70
2022-12-09T15:42:54.405Z,11.50
2022-12-09T15:45:29.395Z,12.80
2022-12-09T15:48:22.408Z,11.70
2022-12-09T15:51:06.304Z,11.90
2022-12-09T15:53:44.697Z,12.00
2022-12-09T15:56:26.197Z,12.20
2022-12-09T15:59:06.865Z,12.00
2022-12-09T16:01:35.697Z,12.50
2022-12-09T16:04:08.607Z,12.40
2022-12-09T16:06:38.451Z,12.20
2022-12-09T16:09:15.016Z,11.30
2022-12-09T16:11:50.725Z,12.10
2022-12-09T16:14:21.678Z,11.60
2022-12-09T16:17:03.002Z,12.60
2022-12-09T16:19:30.863Z,12.30
2022-12-09T16:22:06.921Z,12.30
2022-12-09T16:25:13.590Z,11.60
2022-12-09T16:27:37.492Z,12.60
2022-12-09T16:30:22.344Z,12.40
2022-12-09T16:32:56.153Z,12.30
2022-12-09T16:35:56.969Z,13.70
2022-12-09T16:38:25.463Z,12.00
2022-12-09T16:40:53.535Z,12.10
2022-12-09T16:43:26.235Z,12.20
2022-12-09T16:46:22.799Z,12.40
2022-12-09T16:48:50.788Z,11.40
2022-12-09T16:51:25.143Z,12.40
2022-12-09T16:53:54.587Z,11.30
2022-12-09T16:56:26.997Z,11.80
2022-12-09T16:58:56.884Z,11.50
2022-12-09T17:01:35.258Z,11.30
2022-12-09T17:04:26.441Z,11.20
2022-12-09T17:06:55.450Z,10.90
2022-12-09T17:09:23.534Z,11.80
2022-12-09T17:11:51.503Z,12.40
2022-12-09T17:14:20.102Z,11.60
2022-12-09T17:16:48.036Z,12.50
2022-12-09T17:19:18.748Z,13.00
2022-12-09T17:21:46.650Z,12.80
2022-12-09T17:24:14.622Z,12.90
2022-12-09T17:26:42.800Z,13.50
2022-12-09T17:29:11.183Z,13.60
2022-12-09T17:31:39.329Z,12.90
2022-12-09T17:34:07.424Z,12.50
2022-12-09T17:36:35.395Z,13.00
2022-12-09T17:39:05.669Z,13.50
2022-12-09T17:41:34.002Z,12.70
2022-12-09T17:44:01.981Z,13.10
2022-12-09T17:46:31.140Z,12.70
2022-12-09T17:49:03.058Z,12.50
2022-12-09T17:51:35.993Z,12.90
2022-12-09T17:54:05.597Z,12.50
2022-12-09T17:56:33.882Z,12.40
2022-12-09T17:59:10.566Z,12.00
2022-12-09T18:01:41.148Z,12.10
2022-12-09T18:04:10.862Z,12.70
2022-12-09T18:06:43.394Z,11.80
2022-12-09T18:09:15.884Z,11.70
2022-12-09T18:11:45.013Z,12.10
2022-12-09T18:14:13.129Z,11.60
2022-12-09T18:16:41.768Z,11.90
2022-12-09T18:19:16.611Z,11.10
2022-12-09T18:24:13.815Z,10.60
2022-12-09T18:26:42.551Z,10.80
2022-12-09T18:29:12.719Z,10.70
2022-12-09T18:31:42.253Z,10.60
2022-12-09T18:34:11.061Z,11.40
2022-12-09T18:36:40.009Z,10.30
2022-12-09T18:39:08.596Z,11.30
2022-12-09T18:41:36.545Z,10.90
2022-12-09T18:44:08.055Z,11.70
2022-12-09T18:46:41.027Z,11.30
2022-12-09T18:49:20.497Z,10.70
2022-12-09T18:51:52.302Z,10.30
2022-12-09T18:54:29.236Z,11.60
2022-12-09T18:56:57.207Z,10.80
2022-12-09T18:59:26.959Z,10.70
2022-12-09T19:01:54.879Z,10.50
2022-12-09T19:04:29.330Z,10.80
2022-12-09T19:07:00.290Z,10.40
2022-12-09T19:09:34.444Z,10.50
2022-12-09T19:12:37.911Z,9.80
2022-12-09T19:14:53.386Z,10.30
2022-12-09T19:17:22.349Z,10.00
2022-12-09T19:19:50.651Z,10.10
2022-12-09T19:22:18.662Z,10.50
2022-12-09T19:24:46.698Z,9.70
2022-12-09T19:27:14.640Z,9.60
2022-12-09T19:29:42.662Z,10.10
2022-12-09T19:32:36.443Z,9.30
2022-12-09T19:34:59.376Z,9.40
2022-12-09T19:37:27.429Z,9.30
2022-12-09T19:39:55.400Z,9.50
2022-12-09T19:42:23.669Z,9.30
2022-12-09T19:45:01.601Z,10.20
2022-12-09T19:47:30.473Z,10.20
2022-12-09T19:49:58.455Z,10.20
2022-12-09T19:52:27.433Z,10.40
2022-12-09T19:54:55.461Z,9.40
2022-12-09T19:57:23.304Z,11.00
2022-12-09T19:59:51.340Z,10.60
2022-12-09T20:02:19.521Z,11.70
2022-12-09T20:04:49.640Z,12.80
2022-12-09T20:07:20.276Z,12.80
2022-12-09T20:09:49.259Z,13.30
2022-12-09T20:12:17.263Z,13.50
2022-12-09T20:14:45.191Z,14.20
2022-12-09T20:17:13.302Z,15.80
2022-12-09T20:19:41.854Z,15.50
2022-12-09T20:22:10.029Z,14.70
2022-12-09T20:24:37.969Z,15.70
2022-12-09T20:27:05.968Z,15.20
2022-12-09T20:29:37.532Z,14.20
2022-12-09T20:32:08.923Z,14.20
2022-12-09T20:34:37.452Z,14.30
2022-12-09T20:37:06.016Z,14.40
2022-12-09T20:39:34.212Z,14.10
2022-12-09T20:42:02.349Z,14.00
2022-12-09T20:44:32.547Z,13.40
2022-12-09T20:47:00.638Z,13.60
2022-12-09T20:49:29.909Z,12.90
2022-12-09T20:51:58.361Z,13.20
2022-12-09T20:54:27.141Z,12.60
2022-12-09T20:56:55.427Z,13.30
2022-12-09T20:59:23.604Z,13.30
2022-12-09T21:01:51.879Z,13.30
2022-12-09T21:04:20.394Z,12.60
2022-12-09T21:06:49.253Z,12.70
2022-12-09T21:09:22.285Z,13.30
2022-12-09T21:11:51.493Z,12.80
2022-12-09T21:14:20.335Z,12.90
2022-12-09T21:16:52.028Z,12.40
2022-12-09T21:19:25.166Z,12.50
2022-12-09T21:21:54.589Z,12.40
2022-12-09T21:24:24.239Z,12.40
2022-12-09T21:26:55.644Z,11.70
2022-12-09T21:29:31.290Z,11.80
2022-12-09T21:32:01.577Z,12.40
2022-12-09T21:34:29.725Z,12.30
2022-12-09T21:36:57.926Z,11.40
2022-12-09T21:39:28.442Z,11.60
2022-12-09T21:41:56.596Z,11.90
2022-12-09T21:44:25.624Z,11.40
2022-12-09T21:46:54.249Z,10.80
2022-12-09T21:49:22.311Z,12.00
2022-12-09T21:51:50.381Z,11.30
2022-12-09T21:54:18.342Z,11.50
2022-12-09T21:56:46.218Z,11.30
2022-12-09T21:59:14.282Z,10.70
2022-12-09T22:01:43.514Z,10.80
2022-12-09T22:04:16.357Z,10.50
2022-12-09T22:06:50.732Z,10.70
2022-12-09T22:09:21.289Z,10.00
2022-12-09T22:11:49.602Z,9.30
2022-12-09T22:14:18.391Z,9.10
2022-12-09T22:16:46.859Z,9.30
2022-12-09T22:19:19.193Z,9.20
2022-12-09T22:21:49.220Z,8.80
2022-12-09T22:24:18.256Z,8.80
2022-12-09T22:26:46.672Z,9.20
2022-12-09T22:29:17.684Z,8.60
2022-12-09T22:31:47.533Z,8.30
2022-12-09T22:34:19.893Z,8.40
2022-12-09T22:36:49.789Z,8.50
2022-12-09T22:39:21.808Z,7.90
2022-12-09T22:41:51.141Z,7.80
2022-12-09T22:44:20.436Z,8.20
2022-12-09T22:46:48.835Z,7.40
2022-12-09T22:49:17.926Z,7.50
2022-12-09T22:51:47.705Z,7.10
2022-12-09T22:54:16.522Z,7.50
2022-12-09T22:56:44.878Z,7.20
2022-12-09T22:59:14.262Z,7.30
2022-12-09T23:01:50.523Z,7.00
2022-12-09T23:04:22.001Z,6.40
2022-12-09T23:06:50.915Z,6.60
2022-12-09T23:09:24.035Z,7.00
2022-12-09T23:11:52.992Z,6.70
2022-12-09T23:14:21.267Z,6.20
2022-12-09T23:16:49.645Z,6.30
2022-12-09T23:19:17.818Z,6.40
2022-12-09T23:21:45.670Z,6.30
2022-12-09T23:24:22.594Z,6.20
2022-12-09T23:26:56.185Z,5.90
2022-12-09T23:29:24.624Z,6.00
2022-12-09T23:31:53.126Z,6.00
2022-12-09T23:34:21.411Z,5.90
2022-12-09T23:36:49.578Z,5.40
2022-12-09T23:39:19.385Z,6.00
2022-12-09T23:41:48.692Z,5.80
2022-12-09T23:44:19.166Z,5.70
2022-12-09T23:46:48.320Z,6.00
2022-12-09T23:49:17.467Z,5.40
2022-12-09T23:51:45.728Z,5.50
2022-12-09T23:54:18.063Z,5.80
2022-12-09T23:56:50.956Z,5.60
2022-12-09T23:59:22.017Z,5.60
